SWR92 SBGR-SAEZ
Flight info
| Callsign | SWR92 |
|---|---|
| Flight time | N/A |
| Altitude | 38000 |
| Route | UBSOD UZ38 UMDEX DCT CXS DCT UMRUD UN741 PAPIX PAPIX7B |
| Aircraft | B77W/H-SDE1E2E3FGHIJ2J3J4J5M1RWXY/S |
Departure
| Time | N/A |
|---|---|
| Airport | São Paulo/Guarulhos–Governor André Franco Montoro International Airport (SBGR) |
Arrival
| Time | 2026-04-27 06:00 |
|---|---|
| Airport | Ezeiza International Airport - Ministro Pistarini (SAEZ) |
| Time | Latitude | Longitude | Altitude | Speed | Heading |
|---|---|---|---|---|---|
| 2026-04-27 05:11 | -32.04368 | -55.29667 | 38001 ft | 410 kts | 235° |
| 2026-04-27 05:11 | -32.08588 | -55.34290 | 38003 ft | 415 kts | 235° |
| 2026-04-27 05:12 | -32.12797 | -55.38901 | 37998 ft | 411 kts | 234° |
| 2026-04-27 05:12 | -32.17000 | -55.43516 | 37995 ft | 413 kts | 235° |
| 2026-04-27 05:13 | -32.21198 | -55.48131 | 37954 ft | 414 kts | 234° |
| 2026-04-27 05:13 | -32.25401 | -55.52755 | 37993 ft | 413 kts | 234° |
| 2026-04-27 05:14 | -32.29604 | -55.57388 | 37986 ft | 413 kts | 234° |
| 2026-04-27 05:14 | -32.33834 | -55.62056 | 37988 ft | 414 kts | 234° |
| 2026-04-27 05:15 | -32.38028 | -55.66689 | 38011 ft | 412 kts | 234° |
| 2026-04-27 05:15 | -32.42230 | -55.71339 | 38013 ft | 412 kts | 234° |
| 2026-04-27 05:16 | -32.46402 | -55.75960 | 38005 ft | 411 kts | 234° |
| 2026-04-27 05:16 | -32.50607 | -55.80628 | 38002 ft | 413 kts | 234° |
| 2026-04-27 05:17 | -32.54798 | -55.85283 | 38002 ft | 412 kts | 234° |
| 2026-04-27 05:17 | -32.58974 | -55.89928 | 37998 ft | 412 kts | 234° |
| 2026-04-27 05:18 | -32.63148 | -55.94579 | 38000 ft | 414 kts | 234° |
| 2026-04-27 05:18 | -32.67334 | -55.99246 | 37993 ft | 412 kts | 234° |
| 2026-04-27 05:19 | -32.71505 | -56.03904 | 37998 ft | 412 kts | 234° |
| 2026-04-27 05:19 | -32.75686 | -56.08582 | 38002 ft | 414 kts | 234° |
| 2026-04-27 05:20 | -32.79850 | -56.13245 | 38000 ft | 413 kts | 234° |
| 2026-04-27 05:20 | -32.84077 | -56.17987 | 38004 ft | 415 kts | 233° |
| 2026-04-27 05:21 | -32.88271 | -56.22693 | 37993 ft | 412 kts | 233° |
| 2026-04-27 05:21 | -32.92424 | -56.27367 | 37993 ft | 415 kts | 233° |
| 2026-04-27 05:22 | -32.96629 | -56.32102 | 38003 ft | 415 kts | 233° |
| 2026-04-27 05:22 | -33.00812 | -56.36826 | 37984 ft | 413 kts | 233° |
| 2026-04-27 05:23 | -33.04990 | -56.41566 | 37991 ft | 414 kts | 233° |
| 2026-04-27 05:23 | -33.09155 | -56.46299 | 38019 ft | 415 kts | 233° |
| 2026-04-27 05:24 | -33.13345 | -56.51062 | 37969 ft | 414 kts | 233° |
| 2026-04-27 05:24 | -33.17513 | -56.55811 | 37971 ft | 415 kts | 233° |
| 2026-04-27 05:25 | -33.21701 | -56.60582 | 37970 ft | 415 kts | 233° |
| 2026-04-27 05:25 | -33.25879 | -56.65346 | 37971 ft | 415 kts | 233° |
| 2026-04-27 05:26 | -33.30048 | -56.70108 | 37999 ft | 416 kts | 233° |
| 2026-04-27 05:26 | -33.34221 | -56.74880 | 38000 ft | 414 kts | 233° |
| 2026-04-27 05:27 | -33.38397 | -56.79664 | 38005 ft | 416 kts | 233° |
| 2026-04-27 05:27 | -33.42572 | -56.84451 | 37994 ft | 415 kts | 233° |
| 2026-04-27 05:28 | -33.46752 | -56.89251 | 37994 ft | 414 kts | 233° |
| 2026-04-27 05:28 | -33.50915 | -56.94040 | 37994 ft | 415 kts | 233° |
| 2026-04-27 05:29 | -33.55068 | -56.98822 | 37987 ft | 414 kts | 233° |
| 2026-04-27 05:29 | -33.59228 | -57.03622 | 37982 ft | 415 kts | 233° |
| 2026-04-27 05:30 | -33.63377 | -57.08411 | 37714 ft | 412 kts | 233° |
| 2026-04-27 05:30 | -33.65457 | -57.10818 | 37422 ft | 415 kts | 232° |
| 2026-04-27 05:30 | -33.67525 | -57.13212 | 37163 ft | 417 kts | 232° |
| 2026-04-27 05:30 | -33.69600 | -57.15614 | 37015 ft | 415 kts | 232° |
| 2026-04-27 05:31 | -33.71678 | -57.18020 | 36879 ft | 414 kts | 232° |
| 2026-04-27 05:31 | -33.73777 | -57.20454 | 36694 ft | 415 kts | 232° |
| 2026-04-27 05:31 | -33.75825 | -57.22828 | 36306 ft | 411 kts | 232° |
| 2026-04-27 05:31 | -33.77873 | -57.25206 | 35663 ft | 411 kts | 232° |
| 2026-04-27 05:32 | -33.79942 | -57.27612 | 34928 ft | 413 kts | 232° |
| 2026-04-27 05:32 | -33.82011 | -57.30020 | 34183 ft | 415 kts | 232° |
| 2026-04-27 05:32 | -33.84082 | -57.32429 | 33486 ft | 416 kts | 231° |
| 2026-04-27 05:32 | -33.86167 | -57.34859 | 32776 ft | 419 kts | 231° |
| 2026-04-27 05:33 | -33.88232 | -57.37266 | 31920 ft | 422 kts | 231° |
| 2026-04-27 05:33 | -33.90332 | -57.39715 | 31031 ft | 422 kts | 231° |
| 2026-04-27 05:33 | -33.92426 | -57.42154 | 30502 ft | 415 kts | 231° |
| 2026-04-27 05:33 | -33.94481 | -57.44550 | 30000 ft | 407 kts | 230° |
| 2026-04-27 05:34 | -33.96490 | -57.46894 | 29502 ft | 400 kts | 230° |
| 2026-04-27 05:34 | -33.98478 | -57.49216 | 29018 ft | 392 kts | 230° |
| 2026-04-27 05:34 | -34.00413 | -57.51480 | 28547 ft | 386 kts | 230° |
| 2026-04-27 05:34 | -34.02380 | -57.53790 | 28073 ft | 399 kts | 230° |
| 2026-04-27 05:35 | -34.04369 | -57.56123 | 27567 ft | 399 kts | 230° |
| 2026-04-27 05:35 | -34.06358 | -57.58453 | 27079 ft | 394 kts | 230° |
| 2026-04-27 05:35 | -34.08318 | -57.60751 | 26585 ft | 390 kts | 230° |
| 2026-04-27 05:35 | -34.10229 | -57.62993 | 26100 ft | 386 kts | 230° |
| 2026-04-27 05:36 | -34.12147 | -57.65246 | 25628 ft | 383 kts | 230° |
| 2026-04-27 05:36 | -34.14045 | -57.67478 | 25161 ft | 380 kts | 230° |
| 2026-04-27 05:36 | -34.15934 | -57.69700 | 24684 ft | 377 kts | 230° |
| 2026-04-27 05:36 | -34.17811 | -57.71909 | 24207 ft | 374 kts | 230° |
| 2026-04-27 05:37 | -34.19663 | -57.74091 | 23724 ft | 371 kts | 230° |
| 2026-04-27 05:37 | -34.21479 | -57.76231 | 23238 ft | 367 kts | 230° |
| 2026-04-27 05:37 | -34.23313 | -57.78395 | 22739 ft | 362 kts | 230° |
| 2026-04-27 05:37 | -34.25088 | -57.80489 | 22247 ft | 358 kts | 230° |
| 2026-04-27 05:38 | -34.26866 | -57.82590 | 21759 ft | 357 kts | 229° |
| 2026-04-27 05:38 | -34.28642 | -57.84689 | 21264 ft | 355 kts | 229° |
| 2026-04-27 05:38 | -34.30398 | -57.86765 | 20773 ft | 351 kts | 229° |
| 2026-04-27 05:38 | -34.32126 | -57.88809 | 20299 ft | 348 kts | 229° |
| 2026-04-27 05:39 | -34.33842 | -57.90840 | 19819 ft | 346 kts | 229° |
| 2026-04-27 05:39 | -34.35548 | -57.92862 | 19324 ft | 343 kts | 229° |
| 2026-04-27 05:39 | -34.37237 | -57.94865 | 18832 ft | 339 kts | 229° |
| 2026-04-27 05:39 | -34.38903 | -57.96839 | 18347 ft | 335 kts | 229° |
| 2026-04-27 05:40 | -34.40577 | -57.98807 | 17890 ft | 335 kts | 226° |
| 2026-04-27 05:40 | -34.42467 | -58.00475 | 17409 ft | 342 kts | 216° |
| 2026-04-27 05:40 | -34.44651 | -58.01638 | 16853 ft | 349 kts | 205° |
| 2026-04-27 05:40 | -34.47064 | -58.02232 | 16272 ft | 357 kts | 193° |
| 2026-04-27 05:41 | -34.49571 | -58.02203 | 15687 ft | 365 kts | 181° |
| 2026-04-27 05:41 | -34.52066 | -58.01541 | 15154 ft | 372 kts | 170° |
| 2026-04-27 05:41 | -34.54449 | -58.00277 | 14668 ft | 376 kts | 160° |
| 2026-04-27 05:41 | -34.56761 | -57.98789 | 14216 ft | 370 kts | 159° |
| 2026-04-27 05:42 | -34.59001 | -57.97344 | 13944 ft | 359 kts | 159° |
| 2026-04-27 05:42 | -34.61142 | -57.95964 | 13818 ft | 345 kts | 160° |
| 2026-04-27 05:42 | -34.63213 | -57.94609 | 13789 ft | 329 kts | 160° |
| 2026-04-27 05:42 | -34.65185 | -57.93320 | 13776 ft | 313 kts | 160° |
| 2026-04-27 05:43 | -34.67054 | -57.92094 | 13733 ft | 300 kts | 159° |
| 2026-04-27 05:43 | -34.68878 | -57.90892 | 13448 ft | 295 kts | 159° |
| 2026-04-27 05:43 | -34.70684 | -57.89700 | 13026 ft | 296 kts | 159° |
| 2026-04-27 05:43 | -34.72493 | -57.88513 | 12642 ft | 295 kts | 160° |
| 2026-04-27 05:44 | -34.74296 | -57.87330 | 12292 ft | 293 kts | 159° |
| 2026-04-27 05:44 | -34.76071 | -57.86174 | 11967 ft | 290 kts | 159° |
| 2026-04-27 05:44 | -34.77850 | -57.85027 | 11596 ft | 289 kts | 159° |
| 2026-04-27 05:44 | -34.79644 | -57.83878 | 11194 ft | 289 kts | 159° |
| 2026-04-27 05:45 | -34.81407 | -57.82752 | 10817 ft | 288 kts | 160° |
| 2026-04-27 05:45 | -34.83201 | -57.81602 | 10448 ft | 287 kts | 160° |
| 2026-04-27 05:45 | -34.84935 | -57.80491 | 10115 ft | 285 kts | 160° |
| 2026-04-27 05:45 | -34.86706 | -57.79361 | 9761 ft | 283 kts | 159° |
| 2026-04-27 05:46 | -34.88444 | -57.78257 | 9479 ft | 279 kts | 159° |
| 2026-04-27 05:46 | -34.90229 | -57.77479 | 9157 ft | 265 kts | 179° |
| 2026-04-27 05:46 | -34.91994 | -57.77588 | 8781 ft | 254 kts | 199° |
| 2026-04-27 05:46 | -34.93556 | -57.78500 | 8449 ft | 246 kts | 219° |
| 2026-04-27 05:47 | -34.94704 | -57.80035 | 8095 ft | 244 kts | 237° |
| 2026-04-27 05:47 | -34.95324 | -57.81945 | 7756 ft | 246 kts | 251° |
| 2026-04-27 05:47 | -34.95748 | -57.83957 | 7434 ft | 244 kts | 251° |
| 2026-04-27 05:47 | -34.96165 | -57.85972 | 7038 ft | 245 kts | 250° |
| 2026-04-27 05:48 | -34.96575 | -57.87958 | 6689 ft | 245 kts | 250° |
| 2026-04-27 05:48 | -34.96992 | -57.89981 | 6349 ft | 244 kts | 250° |
| 2026-04-27 05:48 | -34.97403 | -57.91974 | 6037 ft | 241 kts | 250° |
| 2026-04-27 05:48 | -34.97806 | -57.93934 | 5737 ft | 239 kts | 250° |
| 2026-04-27 05:49 | -34.98212 | -57.95913 | 5407 ft | 238 kts | 250° |
| 2026-04-27 05:49 | -34.98611 | -57.97853 | 5112 ft | 236 kts | 250° |
| 2026-04-27 05:49 | -34.99004 | -57.99773 | 4984 ft | 233 kts | 250° |
| 2026-04-27 05:49 | -34.99397 | -58.01683 | 4971 ft | 234 kts | 250° |
| 2026-04-27 05:50 | -34.99791 | -58.03601 | 4969 ft | 235 kts | 250° |
| 2026-04-27 05:50 | -35.00391 | -58.06530 | 4968 ft | 234 kts | 250° |
| 2026-04-27 05:50 | -35.01180 | -58.10387 | 4977 ft | 235 kts | 250° |
| 2026-04-27 05:50 | -35.01962 | -58.14214 | 4980 ft | 236 kts | 250° |
| 2026-04-27 05:51 | -35.02890 | -58.18771 | 4985 ft | 235 kts | 250° |
| 2026-04-27 05:51 | -35.03135 | -58.20754 | 4966 ft | 237 kts | 265° |
| 2026-04-27 05:51 | -35.02708 | -58.22671 | 4959 ft | 237 kts | 287° |
| 2026-04-27 05:51 | -35.01939 | -58.24409 | 4970 ft | 222 kts | 285° |
| 2026-04-27 05:52 | -35.01586 | -58.26102 | 4975 ft | 203 kts | 260° |
| 2026-04-27 05:52 | -35.01887 | -58.27782 | 4982 ft | 202 kts | 241° |
| 2026-04-27 05:52 | -35.02455 | -58.29336 | 4986 ft | 201 kts | 240° |
| 2026-04-27 05:52 | -35.03034 | -58.30893 | 4981 ft | 200 kts | 240° |
| 2026-04-27 05:53 | -35.03612 | -58.32446 | 4979 ft | 199 kts | 239° |
| 2026-04-27 05:53 | -35.04166 | -58.33939 | 4976 ft | 189 kts | 239° |
| 2026-04-27 05:53 | -35.04694 | -58.35369 | 4979 ft | 181 kts | 239° |
| 2026-04-27 05:53 | -35.05214 | -58.36766 | 4984 ft | 179 kts | 239° |
| 2026-04-27 05:54 | -35.05732 | -58.38159 | 4986 ft | 179 kts | 239° |
| 2026-04-27 05:54 | -35.06250 | -58.39548 | 4986 ft | 179 kts | 239° |
| 2026-04-27 05:54 | -35.06652 | -58.40992 | 4979 ft | 185 kts | 252° |
| 2026-04-27 05:54 | -35.06651 | -58.42581 | 4978 ft | 193 kts | 270° |
| 2026-04-27 05:55 | -35.06166 | -58.44168 | 4957 ft | 209 kts | 290° |
| 2026-04-27 05:55 | -35.05181 | -58.45561 | 4548 ft | 232 kts | 311° |
| 2026-04-27 05:55 | -35.03664 | -58.46455 | 4038 ft | 256 kts | 340° |
| 2026-04-27 05:55 | -35.01830 | -58.46518 | 3635 ft | 265 kts | 354° |
| 2026-04-27 05:56 | -35.00050 | -58.46779 | 3360 ft | 254 kts | 339° |
| 2026-04-27 05:56 | -34.98356 | -58.47338 | 3123 ft | 246 kts | 335° |
| 2026-04-27 05:56 | -34.96762 | -58.47884 | 2810 ft | 229 kts | 335° |
| 2026-04-27 05:56 | -34.95275 | -58.48392 | 2527 ft | 218 kts | 335° |
| 2026-04-27 05:57 | -34.93860 | -58.48877 | 2252 ft | 205 kts | 334° |
| 2026-04-27 05:57 | -34.92529 | -58.49336 | 1990 ft | 191 kts | 333° |
| 2026-04-27 05:57 | -34.91285 | -58.49767 | 1750 ft | 180 kts | 333° |
| 2026-04-27 05:57 | -34.90122 | -58.50172 | 1518 ft | 170 kts | 333° |
| 2026-04-27 05:58 | -34.89017 | -58.50554 | 1297 ft | 156 kts | 333° |
| 2026-04-27 05:58 | -34.87975 | -58.50919 | 1094 ft | 152 kts | 334° |
| 2026-04-27 05:58 | -34.86967 | -58.51269 | 901 ft | 150 kts | 334° |
| 2026-04-27 05:58 | -34.85966 | -58.51610 | 722 ft | 148 kts | 335° |
| 2026-04-27 05:59 | -34.84980 | -58.51962 | 481 ft | 148 kts | 335° |
| 2026-04-27 05:59 | -34.83983 | -58.52297 | 281 ft | 146 kts | 336° |
| 2026-04-27 05:59 | -34.83034 | -58.52628 | 82 ft | 136 kts | 339° |
| 2026-04-27 05:59 | -34.82266 | -58.52898 | 79 ft | 91 kts | 343° |
| 2026-04-27 06:00 | -34.81597 | -58.53131 | 80 ft | 24 kts | 332° |
| 2026-04-27 06:00 | -34.81523 | -58.53228 | 81 ft | 11 kts | 301° |
| 2026-04-27 06:00 | -34.81482 | -58.53312 | 82 ft | 11 kts | 299° |
| 2026-04-27 06:01 | -34.81444 | -58.53394 | 83 ft | 10 kts | 298° |
| 2026-04-27 06:01 | -34.81409 | -58.53473 | 84 ft | 10 kts | 297° |
| 2026-04-27 06:01 | -34.81395 | -58.53557 | 85 ft | 9 kts | 258° |
| 2026-04-27 06:01 | -34.81437 | -58.53608 | 85 ft | 9 kts | 207° |
| 2026-04-27 06:02 | -34.81497 | -58.53642 | 86 ft | 9 kts | 204° |
| 2026-04-27 06:02 | -34.81555 | -58.53683 | 86 ft | 9 kts | 219° |
| 2026-04-27 06:02 | -34.81600 | -58.53737 | 86 ft | 8 kts | 235° |
| 2026-04-27 06:02 | -34.81601 | -58.53799 | 86 ft | 7 kts | 295° |
| 2026-04-27 06:03 | -34.81572 | -58.53827 | 87 ft | 5 kts | 335° |
| 2026-04-27 06:03 | -34.81538 | -58.53841 | 87 ft | 5 kts | 343° |
| 2026-04-27 06:03 | -34.81509 | -58.53851 | 87 ft | 1 kts | 346° |
| 2026-04-27 06:03 | -34.81506 | -58.53852 | 87 ft | 0 kts | 346° |